createdAt,value
2023-05-21T00:01:26.813Z,7.18
2023-05-21T00:03:55.020Z,4.82
2023-05-21T00:06:23.233Z,5.47
2023-05-21T00:08:51.362Z,8.10
2023-05-21T00:11:19.619Z,7.22
2023-05-21T00:13:47.625Z,6.70
2023-05-21T00:16:15.660Z,6.60
2023-05-21T00:18:45.500Z,6.97
2023-05-21T00:21:14.056Z,7.63
2023-05-21T00:23:42.745Z,10.48
2023-05-21T00:26:10.905Z,6.30
2023-05-21T00:28:38.873Z,4.65
2023-05-21T00:31:06.893Z,9.05
2023-05-21T00:33:34.852Z,11.85
2023-05-21T00:36:06.102Z,6.13
2023-05-21T00:38:34.075Z,4.70
2023-05-21T00:41:02.820Z,5.18
2023-05-21T00:43:32.588Z,5.35
2023-05-21T00:46:01.057Z,7.05
2023-05-21T00:48:29.149Z,6.40
2023-05-21T00:50:57.321Z,5.40
2023-05-21T00:53:27.591Z,8.10
2023-05-21T00:55:55.615Z,7.38
2023-05-21T00:58:23.769Z,6.78
2023-05-21T01:00:52.245Z,7.82
2023-05-21T01:03:20.577Z,4.63
2023-05-21T01:05:49.513Z,7.88
2023-05-21T01:08:18.008Z,5.80
2023-05-21T01:10:47.525Z,6.38
2023-05-21T01:13:16.900Z,5.72
2023-05-21T01:15:45.757Z,4.60
2023-05-21T01:18:16.322Z,5.13
2023-05-21T01:20:48.305Z,7.03
2023-05-21T01:23:19.006Z,9.98
2023-05-21T01:25:47.682Z,6.25
2023-05-21T01:28:16.258Z,4.63
2023-05-21T01:30:44.844Z,10.32
2023-05-21T01:33:20.265Z,7.25
2023-05-21T01:35:52.237Z,9.75
2023-05-21T01:38:26.170Z,8.82
2023-05-21T01:40:58.859Z,4.90
2023-05-21T01:43:30.169Z,5.38
2023-05-21T01:46:00.110Z,6.28
2023-05-21T01:48:30.542Z,9.95
2023-05-21T01:51:04.370Z,7.10
2023-05-21T01:53:33.886Z,4.68
2023-05-21T01:56:02.829Z,5.50
2023-05-21T01:58:30.844Z,7.47
2023-05-21T02:00:58.914Z,8.25
2023-05-21T02:03:28.296Z,5.85
2023-05-21T02:05:56.338Z,6.15
2023-05-21T02:08:25.554Z,4.82
2023-05-21T02:10:55.082Z,5.25
2023-05-21T02:13:26.510Z,8.52
2023-05-21T02:15:56.100Z,5.53
2023-05-21T02:18:24.629Z,6.63
2023-05-21T02:20:53.301Z,7.97
2023-05-21T02:23:21.306Z,5.82
2023-05-21T02:25:49.341Z,7.90
2023-05-21T02:28:18.664Z,6.70
2023-05-21T02:30:46.686Z,5.57
2023-05-21T02:33:15.633Z,5.85
2023-05-21T02:35:43.887Z,4.95
2023-05-21T02:38:13.676Z,9.90
2023-05-21T02:40:44.219Z,11.60
2023-05-21T02:43:13.517Z,8.05
2023-05-21T02:45:44.278Z,6.45
2023-05-21T02:48:12.566Z,5.63
2023-05-21T02:50:40.668Z,6.97
2023-05-21T02:53:08.746Z,8.43
2023-05-21T02:55:37.150Z,7.70
2023-05-21T02:58:05.883Z,6.00
2023-05-21T03:00:35.132Z,5.63
2023-05-21T03:03:04.924Z,7.55
2023-05-21T03:05:33.346Z,6.63
2023-05-21T03:08:01.365Z,6.32
2023-05-21T03:10:29.365Z,6.78
2023-05-21T03:12:57.556Z,5.03
2023-05-21T03:15:25.596Z,6.95
2023-05-21T03:17:54.401Z,9.07
2023-05-21T03:20:24.200Z,5.38
2023-05-21T03:22:52.923Z,7.30
2023-05-21T03:25:21.619Z,6.68
2023-05-21T03:27:50.710Z,7.85
2023-05-21T03:30:18.936Z,7.10
2023-05-21T03:32:48.561Z,5.82
2023-05-21T03:35:21.547Z,6.78
2023-05-21T03:37:50.903Z,7.57
2023-05-21T03:40:19.222Z,6.60
2023-05-21T03:42:47.234Z,7.85
2023-05-21T03:45:15.239Z,8.50
2023-05-21T03:47:43.357Z,7.30
2023-05-21T03:50:12.366Z,6.25
2023-05-21T03:52:41.122Z,7.00
2023-05-21T03:55:11.207Z,7.97
2023-05-21T03:57:39.404Z,5.85
2023-05-21T04:00:10.076Z,6.82
2023-05-21T04:02:39.525Z,10.98
2023-05-21T04:05:08.499Z,7.57
2023-05-21T04:07:38.947Z,6.95
2023-05-21T04:10:08.118Z,7.78
2023-05-21T04:12:37.548Z,7.38
2023-05-21T04:15:10.158Z,7.13
2023-05-21T04:17:38.617Z,8.75
2023-05-21T04:20:08.806Z,9.23
2023-05-21T04:22:37.518Z,9.50
2023-05-21T04:25:07.162Z,8.18
2023-05-21T04:27:35.809Z,8.60
2023-05-21T04:30:05.964Z,8.52
2023-05-21T04:32:35.004Z,8.48
2023-05-21T04:35:04.280Z,6.47
2023-05-21T04:37:35.067Z,10.07
2023-05-21T04:40:03.281Z,7.45
2023-05-21T04:42:32.978Z,6.68
2023-05-21T04:45:01.203Z,4.97
2023-05-21T04:47:35.385Z,6.60
2023-05-21T04:50:04.332Z,7.72
2023-05-21T04:52:34.781Z,11.77
2023-05-21T04:55:02.986Z,5.53
2023-05-21T04:57:31.018Z,7.70
2023-05-21T04:59:59.035Z,7.95
2023-05-21T05:02:27.117Z,6.25
2023-05-21T05:04:56.789Z,7.10
2023-05-21T05:07:24.816Z,5.28
2023-05-21T05:09:52.829Z,5.60
2023-05-21T05:12:20.815Z,5.78
2023-05-21T05:14:48.773Z,10.70
2023-05-21T05:17:19.868Z,7.80
2023-05-21T05:19:47.843Z,5.55
2023-05-21T05:22:17.228Z,4.97
2023-05-21T05:24:45.282Z,6.60
2023-05-21T05:27:13.374Z,6.40
2023-05-21T05:29:41.366Z,7.78
2023-05-21T05:32:10.110Z,6.65
2023-05-21T05:34:38.890Z,6.78
2023-05-21T05:37:07.176Z,5.80
2023-05-21T05:39:36.585Z,6.72
2023-05-21T05:42:05.068Z,9.13
2023-05-21T05:44:33.040Z,6.05
2023-05-21T05:47:01.407Z,7.68
2023-05-21T05:49:29.454Z,8.75
2023-05-21T05:51:57.622Z,6.55
2023-05-21T05:54:25.882Z,8.93
2023-05-21T05:56:55.225Z,7.18
2023-05-21T05:59:23.173Z,6.90
2023-05-21T06:01:51.173Z,6.05
2023-05-21T06:04:19.143Z,8.27
2023-05-21T06:06:47.435Z,8.02
2023-05-21T06:09:15.702Z,6.88
2023-05-21T06:11:43.685Z,7.25
2023-05-21T06:14:13.062Z,8.15
2023-05-21T06:16:41.290Z,8.77
2023-05-21T06:19:09.445Z,4.60
2023-05-21T06:21:37.534Z,9.23
2023-05-21T06:24:05.979Z,7.35
2023-05-21T06:26:34.235Z,4.88
2023-05-21T06:29:02.480Z,6.18
2023-05-21T06:31:33.133Z,6.00
2023-05-21T06:34:01.748Z,8.32
2023-05-21T06:36:30.360Z,8.65
2023-05-21T06:38:58.479Z,7.97
2023-05-21T06:41:26.521Z,6.05
2023-05-21T06:43:54.512Z,6.50
2023-05-21T06:46:22.571Z,5.00
2023-05-21T06:48:52.054Z,5.95
2023-05-21T06:51:20.086Z,6.43
2023-05-21T06:53:48.138Z,7.88
2023-05-21T06:56:16.222Z,6.25
2023-05-21T06:58:44.397Z,6.38
2023-05-21T07:01:12.761Z,7.00
2023-05-21T07:03:41.149Z,6.38
2023-05-21T07:06:10.567Z,6.50
2023-05-21T07:08:38.603Z,7.72
2023-05-21T07:11:06.711Z,7.80
2023-05-21T07:13:35.908Z,6.25
2023-05-21T07:16:03.957Z,5.90
2023-05-21T07:18:32.783Z,6.70
2023-05-21T07:21:01.087Z,7.72
2023-05-21T07:23:30.808Z,8.23
2023-05-21T07:25:58.896Z,6.93
2023-05-21T07:28:26.940Z,6.78
2023-05-21T07:30:55.329Z,7.75
2023-05-21T07:33:23.660Z,10.88
2023-05-21T07:35:51.618Z,6.38
2023-05-21T07:38:19.653Z,7.07
2023-05-21T07:40:49.005Z,7.65
2023-05-21T07:43:17.052Z,9.57
2023-05-21T07:45:45.043Z,6.70
2023-05-21T07:48:13.762Z,6.88
2023-05-21T07:50:42.127Z,7.78
2023-05-21T07:53:10.177Z,8.30
2023-05-21T07:55:38.527Z,8.07
2023-05-21T07:58:08.032Z,5.82
2023-05-21T08:00:45.090Z,12.27
2023-05-21T08:03:13.262Z,8.77
2023-05-21T08:05:41.643Z,8.95
2023-05-21T08:08:09.648Z,7.95
2023-05-21T08:10:51.797Z,8.98
2023-05-21T08:13:21.191Z,8.88
2023-05-21T08:15:51.377Z,7.50
2023-05-21T08:18:21.288Z,6.68
2023-05-21T08:20:50.436Z,6.47
2023-05-21T08:23:18.492Z,8.40
2023-05-21T08:25:46.596Z,7.88
2023-05-21T08:28:14.707Z,7.70
2023-05-21T08:30:44.173Z,6.65
2023-05-21T08:33:12.272Z,6.45
2023-05-21T08:35:40.302Z,7.30
2023-05-21T08:38:08.346Z,7.57
2023-05-21T08:40:36.467Z,9.18
2023-05-21T08:43:05.200Z,7.20
2023-05-21T08:45:38.072Z,9.15
2023-05-21T08:48:11.392Z,8.27
2023-05-21T08:50:40.088Z,9.13
2023-05-21T08:53:19.430Z,5.97
2023-05-21T08:55:55.745Z,7.50
2023-05-21T08:58:24.166Z,7.35
2023-05-21T09:00:52.217Z,7.35
2023-05-21T09:03:22.712Z,6.72
2023-05-21T09:05:51.745Z,7.10
2023-05-21T09:08:22.661Z,9.85
2023-05-21T09:10:52.656Z,7.68
2023-05-21T09:13:21.723Z,8.77
2023-05-21T09:15:51.555Z,6.80
2023-05-21T09:18:20.938Z,7.78
2023-05-21T09:20:49.357Z,7.20
2023-05-21T09:23:19.128Z,10.35
2023-05-21T09:25:48.030Z,8.45
2023-05-21T09:28:17.248Z,9.60
2023-05-21T09:30:46.617Z,8.13
2023-05-21T09:33:27.245Z,11.45
2023-05-21T09:35:55.420Z,8.05
2023-05-21T09:38:24.575Z,7.65
2023-05-21T09:40:52.602Z,7.43
2023-05-21T09:43:23.162Z,6.68
2023-05-21T09:45:56.907Z,9.02
2023-05-21T09:48:37.874Z,8.60
2023-05-21T09:51:10.846Z,8.60
2023-05-21T09:53:43.626Z,7.63
2023-05-21T09:56:14.608Z,7.25
2023-05-21T09:58:42.761Z,7.72
2023-05-21T10:01:12.591Z,7.68
2023-05-21T10:03:45.516Z,9.10
2023-05-21T10:06:16.492Z,9.52
2023-05-21T10:08:46.602Z,6.60
2023-05-21T10:11:15.380Z,8.43
2023-05-21T10:13:48.807Z,10.43
2023-05-21T10:16:17.255Z,8.82
2023-05-21T10:18:49.622Z,7.30
2023-05-21T10:21:18.337Z,7.53
2023-05-21T10:23:47.274Z,7.47
2023-05-21T10:26:16.630Z,6.25
2023-05-21T10:28:45.687Z,9.48
2023-05-21T10:31:14.234Z,9.60
2023-05-21T10:33:42.951Z,7.40
2023-05-21T10:36:13.162Z,8.07
2023-05-21T10:38:43.921Z,8.77
2023-05-21T10:41:14.146Z,6.90
2023-05-21T10:44:03.776Z,7.45
2023-05-21T10:47:10.499Z,8.57
2023-05-21T10:50:02.614Z,8.18
2023-05-21T10:52:51.761Z,8.90
2023-05-21T10:55:34.356Z,7.25
2023-05-21T10:58:24.830Z,7.57
2023-05-21T11:00:55.953Z,10.38
2023-05-21T11:03:24.812Z,6.95
2023-05-21T11:05:55.180Z,9.88
2023-05-21T11:08:25.861Z,8.30
2023-05-21T11:10:55.750Z,7.22
2023-05-21T11:13:23.900Z,8.20
2023-05-21T11:16:08.202Z,10.45
2023-05-21T11:19:03.923Z,9.40
2023-05-21T11:21:35.530Z,14.73
2023-05-21T11:24:08.389Z,8.90
2023-05-21T11:27:04.665Z,8.13
2023-05-21T11:29:44.353Z,10.63
2023-05-21T11:32:15.254Z,6.93
2023-05-21T11:34:46.110Z,13.27
2023-05-21T11:37:43.697Z,9.57
2023-05-21T11:40:28.361Z,10.07
2023-05-21T11:42:57.528Z,9.98
2023-05-21T11:45:31.902Z,8.73
2023-05-21T11:48:01.275Z,14.55
2023-05-21T11:50:34.398Z,8.43
2023-05-21T11:53:03.417Z,11.90
2023-05-21T11:55:33.141Z,13.05
2023-05-21T11:58:01.813Z,7.90
2023-05-21T12:00:29.919Z,9.43
2023-05-21T12:02:58.902Z,10.15
2023-05-21T12:05:29.550Z,11.30
2023-05-21T12:07:58.434Z,9.77
2023-05-21T12:10:26.755Z,10.68
2023-05-21T12:12:57.525Z,11.23
2023-05-21T12:15:27.733Z,7.63
2023-05-21T12:17:57.159Z,13.05
2023-05-21T12:20:28.124Z,12.07
2023-05-21T12:23:00.414Z,11.77
2023-05-21T12:25:30.093Z,14.32
2023-05-21T12:28:00.497Z,13.30
2023-05-21T12:30:29.478Z,10.32
2023-05-21T12:33:02.124Z,9.38
2023-05-21T12:35:32.187Z,11.02
2023-05-21T12:38:03.089Z,11.95
2023-05-21T12:40:38.691Z,12.50
2023-05-21T12:43:09.033Z,7.03
2023-05-21T12:45:39.378Z,10.70
2023-05-21T12:48:08.343Z,13.02
2023-05-21T12:50:39.936Z,11.85
2023-05-21T12:53:11.439Z,13.45
2023-05-21T12:55:40.877Z,9.68
2023-05-21T12:58:14.405Z,14.45
2023-05-21T13:00:43.376Z,8.38
2023-05-21T13:03:12.085Z,14.93
2023-05-21T13:05:42.308Z,7.60
2023-05-21T13:08:14.142Z,11.02
2023-05-21T13:10:42.248Z,13.77
2023-05-21T13:13:11.727Z,10.63
2023-05-21T13:15:39.804Z,9.63
2023-05-21T13:18:08.767Z,10.45
2023-05-21T13:20:38.243Z,9.07
2023-05-21T13:23:08.310Z,7.93
2023-05-21T13:25:37.931Z,12.00
2023-05-21T13:28:08.722Z,9.40
2023-05-21T13:30:38.534Z,8.35
2023-05-21T13:33:07.474Z,11.43
2023-05-21T13:35:35.734Z,9.63
2023-05-21T13:38:03.777Z,8.57
2023-05-21T13:40:31.865Z,9.23
2023-05-21T13:43:00.373Z,9.35
2023-05-21T13:45:29.879Z,13.75
2023-05-21T13:47:59.567Z,9.00
2023-05-21T13:50:27.913Z,13.30
2023-05-21T13:52:55.986Z,8.38
2023-05-21T13:55:24.379Z,9.13
2023-05-21T13:57:52.960Z,8.88
2023-05-21T14:00:21.427Z,10.10
2023-05-21T14:02:50.177Z,11.13
2023-05-21T14:05:19.915Z,9.25
2023-05-21T14:07:48.475Z,9.85
2023-05-21T14:10:17.039Z,7.75
2023-05-21T14:12:46.038Z,8.45
2023-05-21T14:15:14.084Z,9.05
2023-05-21T14:17:42.440Z,7.55
2023-05-21T14:20:11.352Z,8.38
2023-05-21T14:22:40.736Z,11.98
2023-05-21T14:25:09.178Z,13.07
2023-05-21T14:27:38.478Z,7.35
2023-05-21T14:30:07.617Z,9.52
2023-05-21T14:32:35.700Z,11.10
2023-05-21T14:35:04.523Z,7.93
2023-05-21T14:37:32.539Z,9.95
2023-05-21T14:40:01.907Z,11.45
2023-05-21T14:42:31.960Z,10.75
2023-05-21T14:45:10.836Z,9.15
2023-05-21T14:47:47.777Z,9.60
2023-05-21T14:50:17.615Z,7.40
2023-05-21T14:52:45.748Z,8.70
2023-05-21T14:55:16.761Z,7.45
2023-05-21T14:57:45.159Z,12.82
2023-05-21T15:00:14.041Z,11.30
2023-05-21T15:02:42.533Z,11.43
2023-05-21T15:05:10.941Z,11.93
2023-05-21T15:07:39.058Z,11.20
2023-05-21T15:10:11.188Z,13.90
2023-05-21T15:12:41.553Z,11.63
2023-05-21T15:15:10.439Z,9.95
2023-05-21T15:17:38.517Z,9.38
2023-05-21T15:20:07.764Z,11.77
2023-05-21T15:22:36.138Z,10.82
2023-05-21T15:25:05.726Z,13.13
2023-05-21T15:27:34.165Z,11.05
2023-05-21T15:30:04.947Z,11.30
2023-05-21T15:32:32.960Z,9.80
2023-05-21T15:35:01.167Z,9.07
2023-05-21T15:37:32.429Z,10.18
2023-05-21T15:40:00.695Z,12.70
2023-05-21T15:42:31.282Z,7.18
2023-05-21T15:44:59.322Z,11.10
2023-05-21T15:47:28.874Z,9.32
2023-05-21T15:49:58.707Z,6.63
2023-05-21T15:52:26.892Z,10.52
2023-05-21T15:54:54.925Z,8.43
2023-05-21T15:57:23.001Z,10.65
2023-05-21T15:59:52.621Z,9.95
2023-05-21T16:02:20.962Z,10.52
2023-05-21T16:04:52.066Z,9.18
2023-05-21T16:07:21.079Z,13.18
2023-05-21T16:09:49.188Z,14.88
2023-05-21T16:12:17.251Z,10.88
2023-05-21T16:14:45.604Z,8.50
2023-05-21T16:17:13.699Z,10.23
2023-05-21T16:19:41.768Z,11.63
2023-05-21T16:22:11.479Z,12.07
2023-05-21T16:24:39.546Z,10.50
2023-05-21T16:27:07.566Z,15.38
2023-05-21T16:29:35.658Z,8.20
2023-05-21T16:32:03.853Z,10.02
2023-05-21T16:34:32.061Z,11.95
2023-05-21T16:37:00.697Z,11.43
2023-05-21T16:39:30.161Z,8.65
2023-05-21T16:41:59.631Z,9.65
2023-05-21T16:44:27.756Z,8.48
2023-05-21T16:46:56.146Z,11.38
2023-05-21T16:49:24.184Z,9.35
2023-05-21T16:51:52.231Z,11.18
2023-05-21T16:54:21.306Z,11.57
2023-05-21T16:56:50.702Z,13.63
2023-05-21T16:59:18.806Z,11.43
2023-05-21T17:01:47.215Z,9.20
2023-05-21T17:04:16.047Z,8.00
2023-05-21T17:06:44.115Z,13.98
2023-05-21T17:09:12.097Z,9.18
2023-05-21T17:11:43.723Z,7.68
2023-05-21T17:14:17.554Z,13.68
2023-05-21T17:16:51.729Z,11.32
2023-05-21T17:19:19.857Z,11.98
2023-05-21T17:21:47.964Z,7.20
2023-05-21T17:24:16.127Z,9.88
2023-05-21T17:26:44.124Z,12.35
2023-05-21T17:29:13.754Z,11.00
2023-05-21T17:31:42.102Z,17.63
2023-05-21T17:34:10.284Z,11.80
2023-05-21T17:36:38.424Z,17.35
2023-05-21T17:39:06.588Z,10.98
2023-05-21T17:41:34.715Z,25.40
2023-05-21T17:44:02.843Z,13.80
2023-05-21T17:46:32.261Z,16.02
2023-05-21T17:49:03.549Z,12.32
2023-05-21T17:51:31.716Z,11.05
2023-05-21T17:54:01.837Z,12.40
2023-05-21T17:56:32.712Z,13.32
2023-05-21T17:59:03.362Z,13.68
2023-05-21T18:01:32.793Z,11.10
2023-05-21T18:04:00.929Z,11.55
2023-05-21T18:06:29.708Z,13.68
2023-05-21T18:09:18.595Z,15.10
2023-05-21T18:11:47.077Z,13.65
2023-05-21T18:14:15.661Z,15.45
2023-05-21T18:16:45.568Z,10.38
2023-05-21T18:19:33.886Z,10.38
2023-05-21T18:22:04.899Z,17.25
2023-05-21T18:24:33.326Z,9.60
2023-05-21T18:27:01.531Z,14.73
2023-05-21T18:29:29.812Z,11.88
2023-05-21T18:32:01.909Z,11.52
2023-05-21T18:34:30.220Z,15.00
2023-05-21T18:36:58.984Z,17.33
2023-05-21T18:39:28.907Z,13.00
2023-05-21T18:42:12.126Z,8.23
2023-05-21T18:44:46.323Z,17.15
2023-05-21T18:47:17.270Z,13.52
2023-05-21T18:49:46.087Z,12.38
2023-05-21T18:52:15.571Z,7.55
2023-05-21T18:54:46.343Z,12.02
2023-05-21T18:57:17.511Z,11.88
2023-05-21T18:59:46.151Z,15.75
2023-05-21T19:02:16.015Z,12.68
2023-05-21T19:04:44.703Z,15.15
2023-05-21T19:07:16.019Z,17.10
2023-05-21T19:09:45.079Z,13.95
2023-05-21T19:12:14.323Z,14.30
2023-05-21T19:14:45.081Z,19.20
2023-05-21T19:17:13.674Z,16.13
2023-05-21T19:19:43.377Z,15.38
2023-05-21T19:22:12.322Z,14.43
2023-05-21T19:24:41.786Z,16.10
2023-05-21T19:27:11.292Z,15.02
2023-05-21T19:29:39.520Z,13.55
2023-05-21T19:32:08.382Z,16.23
2023-05-21T19:34:38.157Z,13.95
2023-05-21T19:37:28.872Z,16.00
2023-05-21T19:39:57.197Z,11.80
2023-05-21T19:42:25.430Z,14.82
2023-05-21T19:44:54.041Z,17.30
2023-05-21T19:47:22.701Z,13.02
2023-05-21T19:49:51.405Z,15.15
2023-05-21T19:52:21.161Z,13.73
2023-05-21T19:54:49.499Z,10.35
2023-05-21T19:57:17.890Z,14.25
2023-05-21T19:59:46.083Z,14.70
2023-05-21T20:02:17.021Z,15.73
2023-05-21T20:04:48.202Z,18.00
2023-05-21T20:07:16.725Z,16.08
2023-05-21T20:09:48.880Z,19.58
2023-05-21T20:12:17.912Z,11.60
2023-05-21T20:14:47.812Z,18.42
2023-05-21T20:17:16.190Z,17.27
2023-05-21T20:19:48.072Z,16.63
2023-05-21T20:22:16.556Z,20.27
2023-05-21T20:24:44.818Z,18.30
2023-05-21T20:27:14.809Z,14.50
2023-05-21T20:29:43.944Z,12.48
2023-05-21T20:32:12.200Z,18.95
2023-05-21T20:34:54.297Z,17.85
2023-05-21T20:37:27.158Z,21.63
2023-05-21T20:39:57.947Z,16.08
2023-05-21T20:42:28.693Z,17.63
2023-05-21T20:44:58.917Z,17.00
2023-05-21T20:47:29.945Z,15.60
2023-05-21T20:49:59.007Z,16.05
2023-05-21T20:52:27.269Z,21.20
2023-05-21T20:54:59.861Z,15.85
2023-05-21T20:57:30.378Z,15.85
2023-05-21T20:59:58.503Z,17.23
2023-05-21T21:02:27.186Z,21.02
2023-05-21T21:04:56.470Z,20.08
2023-05-21T21:07:24.810Z,13.00
2023-05-21T21:09:52.821Z,13.95
2023-05-21T21:12:26.496Z,16.08
2023-05-21T21:14:56.671Z,19.50
2023-05-21T21:17:24.773Z,20.38
2023-05-21T21:19:52.897Z,16.92
2023-05-21T21:22:21.029Z,17.83
2023-05-21T21:24:49.253Z,17.42
2023-05-21T21:27:17.768Z,20.27
2023-05-21T21:29:46.448Z,23.60
2023-05-21T21:32:16.037Z,21.45
2023-05-21T21:34:44.218Z,16.95
2023-05-21T21:37:13.422Z,20.15
2023-05-21T21:39:43.882Z,22.23
2023-05-21T21:42:12.036Z,17.58
2023-05-21T21:44:40.285Z,18.70
2023-05-21T21:47:08.586Z,21.00
2023-05-21T21:49:40.722Z,21.40
2023-05-21T21:52:08.885Z,18.42
2023-05-21T21:54:36.887Z,16.10
2023-05-21T21:57:07.025Z,18.33
2023-05-21T21:59:35.525Z,18.30
2023-05-21T22:02:03.754Z,18.48
2023-05-21T22:04:31.846Z,24.90
2023-05-21T22:07:01.741Z,14.80
2023-05-21T22:09:29.813Z,16.85
2023-05-21T22:11:58.395Z,21.80
2023-05-21T22:14:29.170Z,18.73
2023-05-21T22:16:57.334Z,19.33
2023-05-21T22:19:25.585Z,19.95
2023-05-21T22:21:54.357Z,19.85
2023-05-21T22:24:31.972Z,18.05
2023-05-21T22:27:01.461Z,23.65
2023-05-21T22:29:29.454Z,20.88
2023-05-21T22:31:57.624Z,21.52
2023-05-21T22:34:25.650Z,19.50
2023-05-21T22:36:53.977Z,17.50
2023-05-21T22:39:23.348Z,17.73
2023-05-21T22:41:51.454Z,19.73
2023-05-21T22:44:19.958Z,20.38
2023-05-21T22:46:49.383Z,17.23
2023-05-21T22:49:17.519Z,22.05
2023-05-21T22:51:46.596Z,19.13
2023-05-21T22:54:14.638Z,18.98
2023-05-21T22:56:44.979Z,18.35
2023-05-21T22:59:13.002Z,20.88
2023-05-21T23:01:42.403Z,16.52
2023-05-21T23:04:10.812Z,22.88
2023-05-21T23:06:38.804Z,19.30
2023-05-21T23:09:07.008Z,16.25
2023-05-21T23:11:35.185Z,18.23
2023-05-21T23:14:04.602Z,18.75
2023-05-21T23:16:32.616Z,17.02
2023-05-21T23:19:01.244Z,18.83
2023-05-21T23:21:29.538Z,19.75
2023-05-21T23:23:57.616Z,23.67
2023-05-21T23:26:25.919Z,18.25
2023-05-21T23:28:53.972Z,25.02
2023-05-21T23:31:23.606Z,18.55
2023-05-21T23:33:52.198Z,26.77
2023-05-21T23:36:20.258Z,29.65
2023-05-21T23:38:48.474Z,28.15
2023-05-21T23:41:16.988Z,24.38
2023-05-21T23:43:45.037Z,25.45
2023-05-21T23:46:13.129Z,25.42
2023-05-21T23:48:42.537Z,26.77
2023-05-21T23:51:10.578Z,28.20
2023-05-21T23:53:38.687Z,20.67
2023-05-21T23:56:07.311Z,25.63
2023-05-21T23:58:35.415Z,22.67
